createdAt,value
2019-06-08T00:02:12.559Z,13.30
2019-06-08T00:04:43.192Z,13.20
2019-06-08T00:07:14.614Z,13.30
2019-06-08T00:09:45.697Z,13.20
2019-06-08T00:12:18.791Z,13.20
2019-06-08T00:14:49.236Z,13.20
2019-06-08T00:17:35.756Z,13.10
2019-06-08T00:19:52.140Z,13.20
2019-06-08T00:22:23.928Z,13.40
2019-06-08T00:24:54.476Z,13.40
2019-06-08T00:27:25.441Z,13.40
2019-06-08T00:29:55.822Z,13.40
2019-06-08T00:32:26.077Z,13.50
2019-06-08T00:34:56.353Z,13.60
2019-06-08T00:37:26.826Z,13.60
2019-06-08T00:39:57.125Z,13.70
2019-06-08T00:42:27.599Z,13.70
2019-06-08T00:44:57.939Z,13.80
2019-06-08T00:47:46.134Z,13.80
2019-06-08T00:50:01.434Z,13.90
2019-06-08T00:52:31.945Z,13.90
2019-06-08T00:55:02.176Z,13.90
2019-06-08T00:57:33.593Z,14.00
2019-06-08T01:00:10.995Z,14.00
2019-06-08T01:02:42.620Z,14.00
2019-06-08T01:05:13.287Z,14.10
2019-06-08T01:07:43.734Z,14.20
2019-06-08T01:10:14.361Z,14.20
2019-06-08T01:12:44.740Z,14.20
2019-06-08T01:15:16.362Z,14.20
2019-06-08T01:18:01.642Z,14.30
2019-06-08T01:20:23.466Z,14.30
2019-06-08T01:22:53.789Z,14.30
2019-06-08T01:25:24.041Z,14.20
2019-06-08T01:27:54.367Z,14.20
2019-06-08T01:30:26.318Z,14.10
2019-06-08T01:32:56.808Z,14.20
2019-06-08T01:35:27.060Z,14.20
2019-06-08T01:37:57.267Z,14.20
2019-06-08T01:40:27.744Z,14.20
2019-06-08T01:42:58.103Z,14.20
2019-06-08T01:45:32.978Z,14.20
2019-06-08T01:48:18.889Z,14.30
2019-06-08T01:50:37.188Z,14.40
2019-06-08T01:53:07.447Z,14.40
2019-06-08T01:55:38.850Z,14.50
2019-06-08T01:58:08.968Z,14.50
2019-06-08T02:00:41.585Z,14.40
2019-06-08T02:03:11.356Z,14.40
2019-06-08T02:05:43.068Z,14.80
2019-06-08T02:08:13.350Z,14.90
2019-06-08T02:10:43.986Z,14.90
2019-06-08T02:13:14.270Z,14.90
2019-06-08T02:15:44.481Z,14.90
2019-06-08T02:18:16.149Z,15.00
2019-06-08T02:20:46.320Z,15.00
2019-06-08T02:23:18.040Z,15.00
2019-06-08T02:25:48.196Z,15.00
2019-06-08T02:28:18.423Z,15.00
2019-06-08T02:30:48.564Z,15.00
2019-06-08T02:33:19.100Z,15.00
2019-06-08T02:35:49.319Z,14.90
2019-06-08T02:38:19.438Z,14.90
2019-06-08T02:40:49.657Z,14.90
2019-06-08T02:43:20.413Z,14.90
2019-06-08T02:45:50.755Z,14.90
2019-06-08T02:48:21.180Z,14.90
2019-06-08T02:50:55.622Z,14.80
2019-06-08T02:53:29.102Z,14.80
2019-06-08T02:55:59.618Z,14.80
2019-06-08T02:58:33.600Z,14.90
2019-06-08T03:01:04.719Z,14.90
2019-06-08T03:03:38.477Z,15.00
2019-06-08T03:06:08.633Z,14.90
2019-06-08T03:08:42.095Z,14.90
2019-06-08T03:11:12.861Z,15.00
2019-06-08T03:13:44.660Z,14.90
2019-06-08T03:16:14.853Z,14.90
2019-06-08T03:18:45.318Z,14.90
2019-06-08T03:21:15.517Z,14.90
2019-06-08T03:23:45.771Z,14.80
2019-06-08T03:26:16.354Z,14.90
2019-06-08T03:28:46.554Z,14.80
2019-06-08T03:31:16.775Z,14.80
2019-06-08T03:33:54.881Z,14.80
2019-06-08T03:36:19.914Z,14.80
2019-06-08T03:38:50.555Z,14.80
2019-06-08T03:41:20.980Z,14.80
2019-06-08T03:43:51.584Z,14.90
2019-06-08T03:46:21.920Z,14.80
2019-06-08T03:48:52.646Z,14.80
2019-06-08T03:51:23.253Z,14.80
2019-06-08T03:53:53.559Z,14.80
2019-06-08T03:56:23.789Z,14.80
2019-06-08T03:58:54.146Z,14.80
2019-06-08T04:01:24.526Z,14.70
2019-06-08T04:03:58.874Z,14.70
2019-06-08T04:06:26.789Z,14.70
2019-06-08T04:08:57.199Z,14.70
2019-06-08T04:11:27.856Z,14.70
2019-06-08T04:13:58.079Z,14.70
2019-06-08T04:16:28.552Z,14.60
2019-06-08T04:18:59.008Z,14.60
2019-06-08T04:21:29.579Z,14.60
2019-06-08T04:23:59.928Z,14.60
2019-06-08T04:26:30.132Z,14.60
2019-06-08T04:29:00.811Z,14.60
2019-06-08T04:31:31.140Z,14.60
2019-06-08T04:34:02.860Z,14.60
2019-06-08T04:36:33.288Z,14.70
2019-06-08T04:39:05.456Z,14.70
2019-06-08T04:41:35.847Z,14.60
2019-06-08T04:44:06.224Z,14.60
2019-06-08T04:46:38.127Z,14.60
2019-06-08T04:49:08.729Z,14.60
2019-06-08T04:51:40.780Z,14.70
2019-06-08T04:54:14.485Z,14.60
2019-06-08T04:56:44.758Z,14.60
2019-06-08T04:59:15.462Z,14.60
2019-06-08T05:01:47.122Z,14.60
2019-06-08T05:04:17.991Z,14.60
2019-06-08T05:06:49.521Z,14.50
2019-06-08T05:09:20.126Z,14.50
2019-06-08T05:11:50.551Z,14.60
2019-06-08T05:14:22.147Z,14.50
2019-06-08T05:16:52.548Z,14.60
2019-06-08T05:19:22.801Z,14.50
2019-06-08T05:21:54.169Z,14.60
2019-06-08T05:24:24.463Z,14.60
2019-06-08T05:26:54.944Z,14.50
2019-06-08T05:29:25.236Z,14.50
2019-06-08T05:31:55.525Z,14.50
2019-06-08T05:34:25.974Z,14.50
2019-06-08T05:36:56.300Z,14.50
2019-06-08T05:39:28.059Z,14.50
2019-06-08T05:41:58.789Z,14.50
2019-06-08T05:44:29.438Z,14.50
2019-06-08T05:46:59.913Z,14.50
2019-06-08T05:49:31.576Z,14.60
2019-06-08T05:52:03.035Z,14.60
2019-06-08T05:54:33.670Z,14.60
2019-06-08T05:57:04.230Z,14.60
2019-06-08T05:59:34.560Z,14.60
2019-06-08T06:02:05.154Z,14.60
2019-06-08T06:04:36.535Z,14.60
2019-06-08T06:07:07.094Z,14.70
2019-06-08T06:09:37.374Z,14.70
2019-06-08T06:12:07.826Z,14.60
2019-06-08T06:14:38.107Z,14.70
2019-06-08T06:17:08.416Z,14.70
2019-06-08T06:19:39.295Z,14.80
2019-06-08T06:22:10.041Z,14.80
2019-06-08T06:24:41.726Z,14.80
2019-06-08T06:27:12.865Z,14.70
2019-06-08T06:29:43.544Z,14.80
2019-06-08T06:32:14.389Z,14.80
2019-06-08T06:34:45.827Z,14.80
2019-06-08T06:37:17.794Z,14.90
2019-06-08T06:39:49.958Z,14.90
2019-06-08T06:42:23.853Z,14.90
2019-06-08T06:44:52.944Z,15.10
2019-06-08T06:47:23.402Z,15.20
2019-06-08T06:49:54.012Z,15.30
2019-06-08T06:52:24.378Z,15.30
2019-06-08T06:54:55.833Z,15.40
2019-06-08T06:57:27.403Z,15.50
2019-06-08T06:59:57.921Z,15.60
2019-06-08T07:02:28.930Z,15.50
2019-06-08T07:04:59.590Z,15.40
2019-06-08T07:07:30.500Z,15.50
2019-06-08T07:10:01.153Z,15.60
2019-06-08T07:12:31.372Z,15.70
2019-06-08T07:15:02.347Z,15.60
2019-06-08T07:17:34.422Z,15.50
2019-06-08T07:20:06.198Z,15.50
2019-06-08T07:22:36.812Z,15.60
2019-06-08T07:25:08.104Z,15.60
2019-06-08T07:28:00.415Z,15.60
2019-06-08T07:30:30.584Z,15.70
2019-06-08T07:33:02.204Z,15.80
2019-06-08T07:35:33.697Z,15.70
2019-06-08T07:38:04.430Z,15.70
2019-06-08T07:40:35.728Z,15.70
2019-06-08T07:43:07.054Z,15.80
2019-06-08T07:45:37.197Z,15.70
2019-06-08T07:48:08.111Z,15.90
2019-06-08T07:50:38.667Z,15.90
2019-06-08T07:53:09.302Z,16.00
2019-06-08T07:55:40.243Z,16.10
2019-06-08T07:58:11.330Z,16.30
2019-06-08T08:00:41.569Z,16.30
2019-06-08T08:03:12.660Z,16.50
2019-06-08T08:05:43.507Z,16.30
2019-06-08T08:08:14.054Z,16.20
2019-06-08T08:10:44.516Z,16.10
2019-06-08T08:13:14.810Z,16.50
2019-06-08T08:15:44.808Z,16.60
2019-06-08T08:18:15.352Z,16.70
2019-06-08T08:20:45.794Z,16.70
2019-06-08T08:23:17.331Z,16.50
2019-06-08T08:25:49.145Z,16.50
2019-06-08T08:28:20.141Z,16.90
2019-06-08T08:30:51.126Z,16.90
2019-06-08T08:33:23.589Z,16.90
2019-06-08T08:35:54.128Z,17.00
2019-06-08T08:38:24.672Z,17.00
2019-06-08T08:40:59.423Z,17.30
2019-06-08T08:43:28.104Z,17.40
2019-06-08T08:46:01.808Z,17.20
2019-06-08T08:48:32.657Z,17.30
2019-06-08T08:51:04.292Z,17.20
2019-06-08T08:53:34.989Z,17.40
2019-06-08T08:56:07.352Z,17.60
2019-06-08T08:58:38.202Z,17.30
2019-06-08T09:01:09.605Z,17.50
2019-06-08T09:03:40.263Z,17.40
2019-06-08T09:06:12.254Z,17.20
2019-06-08T09:08:43.716Z,17.30
2019-06-08T09:11:14.619Z,17.10
2019-06-08T09:13:45.213Z,17.20
2019-06-08T09:16:17.738Z,17.20
2019-06-08T09:18:49.148Z,17.50
2019-06-08T09:21:19.432Z,17.60
2019-06-08T09:23:51.276Z,17.30
2019-06-08T09:26:21.981Z,17.30
2019-06-08T09:28:53.263Z,17.30
2019-06-08T09:31:24.204Z,17.10
2019-06-08T09:34:01.333Z,17.40
2019-06-08T09:36:28.500Z,17.60
2019-06-08T09:39:00.693Z,17.50
2019-06-08T09:41:31.256Z,17.60
2019-06-08T09:44:05.330Z,18.10
2019-06-08T09:46:34.186Z,17.80
2019-06-08T09:49:08.444Z,17.90
2019-06-08T09:51:37.880Z,18.10
2019-06-08T09:54:11.851Z,18.30
2019-06-08T09:56:40.161Z,17.90
2019-06-08T09:59:11.730Z,17.90
2019-06-08T10:01:42.344Z,17.90
2019-06-08T10:04:12.821Z,17.80
2019-06-08T10:06:44.044Z,18.10
2019-06-08T10:09:14.470Z,18.00
2019-06-08T10:11:44.847Z,18.30
2019-06-08T10:14:15.221Z,18.30
2019-06-08T10:16:47.688Z,18.30
2019-06-08T10:19:18.661Z,18.30
2019-06-08T10:21:50.510Z,18.20
2019-06-08T10:24:22.393Z,18.10
2019-06-08T10:26:53.102Z,18.80
2019-06-08T10:29:23.384Z,19.20
2019-06-08T10:31:53.651Z,19.80
2019-06-08T10:34:24.028Z,19.90
2019-06-08T10:36:55.516Z,20.00
2019-06-08T10:39:28.244Z,19.50
2019-06-08T10:42:01.081Z,19.60
2019-06-08T10:44:29.972Z,19.90
2019-06-08T10:47:02.146Z,19.30
2019-06-08T10:49:32.097Z,19.50
2019-06-08T10:52:04.268Z,19.50
2019-06-08T10:54:34.228Z,18.70
2019-06-08T10:57:07.149Z,19.40
2019-06-08T10:59:40.029Z,19.40
2019-06-08T11:02:13.458Z,19.50
2019-06-08T11:04:43.189Z,20.50
2019-06-08T11:07:16.105Z,20.60
2019-06-08T11:09:45.179Z,20.60
2019-06-08T11:12:18.264Z,20.40
2019-06-08T11:14:48.144Z,19.70
2019-06-08T11:17:18.705Z,19.60
2019-06-08T11:19:49.058Z,19.30
2019-06-08T11:22:19.276Z,19.50
2019-06-08T11:24:49.511Z,19.90
2019-06-08T11:27:19.777Z,20.60
2019-06-08T11:29:52.232Z,20.20
2019-06-08T11:32:22.425Z,20.30
2019-06-08T11:34:52.690Z,20.40
2019-06-08T11:37:23.223Z,20.50
2019-06-08T11:39:57.556Z,20.10
2019-06-08T11:42:28.521Z,20.00
2019-06-08T11:45:00.287Z,21.00
2019-06-08T11:47:31.001Z,21.60
2019-06-08T11:50:02.824Z,22.20
2019-06-08T11:52:33.740Z,21.70
2019-06-08T11:55:05.485Z,21.00
2019-06-08T11:57:40.472Z,20.00
2019-06-08T12:00:24.238Z,20.00
2019-06-08T12:02:44.410Z,19.40
2019-06-08T12:05:14.865Z,19.50
2019-06-08T12:07:47.911Z,19.60
2019-06-08T12:10:17.896Z,20.00
2019-06-08T12:12:48.589Z,20.60
2019-06-08T12:15:21.216Z,21.10
2019-06-08T12:17:50.738Z,21.10
2019-06-08T12:20:24.342Z,21.30
2019-06-08T12:22:52.898Z,21.30
2019-06-08T12:25:24.613Z,21.50
2019-06-08T12:27:55.069Z,21.50
2019-06-08T12:30:28.947Z,21.30
2019-06-08T12:32:58.282Z,22.00
2019-06-08T12:35:29.626Z,22.50
2019-06-08T12:37:59.908Z,22.30
2019-06-08T12:40:30.103Z,21.60
2019-06-08T12:43:00.468Z,21.90
2019-06-08T12:45:30.813Z,22.80
2019-06-08T12:48:02.227Z,25.00
2019-06-08T12:50:32.894Z,27.40
2019-06-08T12:53:03.151Z,26.60
2019-06-08T12:55:33.559Z,24.50
2019-06-08T12:58:05.158Z,23.30
2019-06-08T13:00:37.779Z,22.70
2019-06-08T13:03:08.636Z,22.80
2019-06-08T13:05:39.707Z,24.20
2019-06-08T13:08:11.733Z,24.10
2019-06-08T13:10:42.482Z,22.20
2019-06-08T13:13:12.888Z,22.70
2019-06-08T13:15:43.174Z,22.30
2019-06-08T13:18:15.194Z,21.80
2019-06-08T13:20:45.552Z,23.40
2019-06-08T13:23:18.325Z,24.30
2019-06-08T13:25:48.289Z,24.20
2019-06-08T13:28:24.893Z,25.20
2019-06-08T13:30:50.861Z,25.40
2019-06-08T13:33:21.119Z,26.00
2019-06-08T13:35:51.393Z,28.00
2019-06-08T13:38:23.044Z,29.40
2019-06-08T13:40:53.470Z,27.90
2019-06-08T13:43:23.890Z,27.30
2019-06-08T13:45:54.135Z,28.40
2019-06-08T13:48:24.667Z,29.20
2019-06-08T13:50:54.859Z,28.50
2019-06-08T13:53:31.093Z,28.70
2019-06-08T13:55:58.217Z,26.90
2019-06-08T13:58:33.151Z,25.50
2019-06-08T14:01:00.788Z,27.70
2019-06-08T14:03:31.431Z,30.80
2019-06-08T14:06:01.840Z,28.80
2019-06-08T14:08:33.145Z,28.40
2019-06-08T14:11:04.742Z,30.00
2019-06-08T14:13:34.991Z,30.60
2019-06-08T14:16:05.517Z,31.10
2019-06-08T14:18:38.435Z,32.70
2019-06-08T14:21:07.963Z,32.40
2019-06-08T14:23:41.246Z,33.70
2019-06-08T14:26:12.939Z,31.40
2019-06-08T14:28:43.218Z,32.40
2019-06-08T14:31:13.662Z,31.80
2019-06-08T14:33:43.963Z,30.20
2019-06-08T14:36:14.339Z,29.60
2019-06-08T14:38:44.689Z,28.80
2019-06-08T14:41:15.105Z,26.50
2019-06-08T14:43:48.287Z,28.20
2019-06-08T14:46:19.899Z,30.80
2019-06-08T14:48:50.302Z,29.20
2019-06-08T14:51:20.608Z,28.50
2019-06-08T14:53:51.007Z,28.90
2019-06-08T14:56:21.365Z,27.70
2019-06-08T14:58:52.014Z,29.20
2019-06-08T15:01:23.916Z,31.20
2019-06-08T15:03:54.135Z,33.50
2019-06-08T15:06:27.548Z,34.90
2019-06-08T15:08:58.218Z,34.00
2019-06-08T15:11:33.227Z,32.60
2019-06-08T15:14:00.727Z,31.30
2019-06-08T15:16:32.835Z,32.50
2019-06-08T15:19:03.180Z,32.80
2019-06-08T15:21:33.400Z,33.10
2019-06-08T15:24:03.533Z,32.90
2019-06-08T15:26:42.650Z,33.80
2019-06-08T15:29:07.475Z,32.80
2019-06-08T15:31:39.054Z,31.70
2019-06-08T15:34:10.874Z,29.50
2019-06-08T15:36:41.206Z,29.40
2019-06-08T15:39:11.458Z,29.70
2019-06-08T15:41:41.657Z,31.10
2019-06-08T15:44:11.898Z,30.00
2019-06-08T15:46:42.389Z,31.30
2019-06-08T15:49:12.662Z,31.60
2019-06-08T15:51:44.330Z,30.60
2019-06-08T15:54:14.642Z,31.20
2019-06-08T15:56:51.375Z,28.70
2019-06-08T15:59:18.504Z,29.80
2019-06-08T16:01:48.789Z,28.90
2019-06-08T16:04:19.290Z,29.30
2019-06-08T16:06:49.807Z,29.70
2019-06-08T16:09:20.384Z,31.40
2019-06-08T16:11:50.561Z,31.20
2019-06-08T16:14:20.748Z,26.90
2019-06-08T16:16:50.970Z,26.60
2019-06-08T16:19:21.454Z,27.90
2019-06-08T16:21:51.757Z,27.50
2019-06-08T16:24:23.373Z,28.90
2019-06-08T16:26:53.836Z,30.80
2019-06-08T16:29:24.532Z,31.40
2019-06-08T16:31:54.782Z,32.50
2019-06-08T16:34:25.004Z,32.90
2019-06-08T16:36:57.619Z,33.70
2019-06-08T16:39:28.643Z,34.50
2019-06-08T16:41:58.874Z,34.30
2019-06-08T16:44:29.993Z,34.70
2019-06-08T16:47:00.578Z,32.90
2019-06-08T16:49:31.217Z,33.10
2019-06-08T16:52:02.759Z,32.80
2019-06-08T16:54:33.035Z,31.80
2019-06-08T16:57:09.985Z,29.60
2019-06-08T16:59:36.650Z,30.10
2019-06-08T17:02:07.126Z,31.80
2019-06-08T17:04:37.548Z,32.80
2019-06-08T17:07:07.743Z,32.70
2019-06-08T17:09:40.083Z,31.80
2019-06-08T17:12:11.696Z,31.20
2019-06-08T17:14:43.863Z,30.70
2019-06-08T17:17:14.085Z,30.90
2019-06-08T17:19:44.496Z,30.90
2019-06-08T17:22:14.988Z,30.80
2019-06-08T17:24:45.212Z,30.70
2019-06-08T17:27:26.239Z,29.90
2019-06-08T17:29:48.846Z,29.60
2019-06-08T17:32:19.052Z,29.40
2019-06-08T17:34:49.354Z,29.00
2019-06-08T17:37:19.725Z,28.80
2019-06-08T17:39:49.978Z,28.90
2019-06-08T17:42:20.118Z,28.30
2019-06-08T17:44:50.637Z,28.40
2019-06-08T17:47:23.963Z,28.00
2019-06-08T17:49:52.832Z,27.60
2019-06-08T17:52:23.235Z,27.80
2019-06-08T17:54:53.681Z,27.90
2019-06-08T17:57:23.958Z,27.60
2019-06-08T17:59:54.196Z,27.40
2019-06-08T18:02:28.134Z,27.70
2019-06-08T18:04:57.953Z,27.40
2019-06-08T18:07:29.858Z,27.40
2019-06-08T18:10:00.098Z,26.60
2019-06-08T18:12:30.325Z,26.60
2019-06-08T18:15:00.564Z,26.80
2019-06-08T18:17:39.241Z,26.70
2019-06-08T18:20:11.772Z,25.60
2019-06-08T18:22:44.365Z,24.90
2019-06-08T18:25:17.192Z,25.20
2019-06-08T18:28:05.044Z,24.80
2019-06-08T18:30:21.785Z,24.00
2019-06-08T18:32:51.984Z,23.20
2019-06-08T18:35:22.344Z,22.70
2019-06-08T18:37:53.292Z,22.60
2019-06-08T18:40:23.671Z,22.90
2019-06-08T18:42:54.402Z,22.60
2019-06-08T18:45:24.788Z,22.00
2019-06-08T18:47:57.575Z,21.70
2019-06-08T18:50:28.479Z,21.60
2019-06-08T18:53:00.802Z,21.20
2019-06-08T18:55:31.019Z,21.00
2019-06-08T18:58:13.927Z,20.80
2019-06-08T19:00:39.984Z,20.30
2019-06-08T19:03:09.841Z,20.50
2019-06-08T19:05:43.559Z,20.60
2019-06-08T19:08:13.823Z,20.50
2019-06-08T19:10:45.496Z,20.20
2019-06-08T19:13:17.953Z,19.90
2019-06-08T19:15:52.774Z,19.50
2019-06-08T19:18:22.153Z,19.30
2019-06-08T19:20:53.561Z,19.20
2019-06-08T19:23:24.509Z,19.00
2019-06-08T19:25:54.955Z,19.00
2019-06-08T19:28:36.004Z,18.60
2019-06-08T19:30:58.325Z,18.60
2019-06-08T19:33:28.989Z,18.30
2019-06-08T19:35:59.204Z,18.00
2019-06-08T19:38:29.401Z,18.00
2019-06-08T19:41:00.345Z,18.10
2019-06-08T19:43:31.390Z,18.30
2019-06-08T19:46:03.058Z,17.90
2019-06-08T19:48:33.424Z,18.00
2019-06-08T19:51:03.695Z,18.10
2019-06-08T19:53:34.178Z,17.80
2019-06-08T19:56:04.382Z,17.70
2019-06-08T19:58:34.599Z,17.40
2019-06-08T20:01:07.590Z,17.20
2019-06-08T20:03:38.031Z,17.10
2019-06-08T20:06:08.386Z,17.00
2019-06-08T20:08:38.570Z,17.10
2019-06-08T20:11:09.053Z,17.10
2019-06-08T20:13:39.390Z,17.20
2019-06-08T20:16:09.784Z,16.90
2019-06-08T20:18:40.014Z,16.70
2019-06-08T20:21:10.455Z,16.50
2019-06-08T20:23:41.156Z,16.40
2019-06-08T20:26:11.832Z,16.30
2019-06-08T20:28:43.555Z,16.20
2019-06-08T20:31:14.429Z,16.10
2019-06-08T20:33:45.543Z,16.20
2019-06-08T20:36:17.527Z,15.90
2019-06-08T20:38:49.058Z,15.80
2019-06-08T20:41:19.531Z,15.80
2019-06-08T20:43:51.934Z,15.80
2019-06-08T20:46:21.732Z,15.80
2019-06-08T20:48:53.126Z,15.80
2019-06-08T20:51:23.766Z,15.60
2019-06-08T20:53:53.983Z,15.70
2019-06-08T20:56:24.533Z,15.70
2019-06-08T20:58:54.662Z,15.60
2019-06-08T21:01:24.973Z,15.50
2019-06-08T21:03:57.139Z,15.40
2019-06-08T21:06:27.969Z,15.20
2019-06-08T21:08:59.862Z,15.00
2019-06-08T21:11:30.474Z,15.00
2019-06-08T21:14:01.051Z,14.90
2019-06-08T21:16:31.525Z,15.10
2019-06-08T21:19:02.896Z,15.10
2019-06-08T21:21:33.106Z,14.90
2019-06-08T21:24:03.560Z,14.90
2019-06-08T21:26:34.262Z,15.00
2019-06-08T21:29:04.759Z,14.80
2019-06-08T21:31:34.962Z,14.60
2019-06-08T21:34:07.280Z,14.50
2019-06-08T21:36:37.608Z,14.50
2019-06-08T21:39:08.488Z,14.30
2019-06-08T21:41:38.999Z,14.40
2019-06-08T21:44:12.622Z,14.30
2019-06-08T21:46:42.595Z,14.40
2019-06-08T21:49:13.083Z,14.50
2019-06-08T21:51:43.448Z,14.50
2019-06-08T21:54:13.747Z,14.30
2019-06-08T21:56:44.961Z,14.10
2019-06-08T21:59:15.185Z,14.00
2019-06-08T22:01:49.214Z,14.00
2019-06-08T22:04:19.075Z,14.30
2019-06-08T22:06:49.788Z,14.40
2019-06-08T22:09:20.086Z,14.20
2019-06-08T22:11:51.112Z,14.30
2019-06-08T22:14:22.079Z,14.20
2019-06-08T22:16:53.788Z,14.20
2019-06-08T22:19:24.221Z,14.10
2019-06-08T22:21:56.083Z,14.10
2019-06-08T22:24:27.736Z,14.00
2019-06-08T22:27:01.753Z,14.00
2019-06-08T22:29:31.492Z,13.70
2019-06-08T22:32:02.150Z,13.80
2019-06-08T22:34:33.514Z,13.60
2019-06-08T22:37:03.909Z,13.60
2019-06-08T22:39:34.080Z,13.90
2019-06-08T22:42:04.349Z,14.00
2019-06-08T22:44:37.357Z,13.80
2019-06-08T22:47:08.089Z,14.10
2019-06-08T22:49:38.583Z,14.30
2019-06-08T22:52:09.595Z,14.10
2019-06-08T22:54:39.988Z,13.70
2019-06-08T22:57:10.207Z,13.40
2019-06-08T22:59:40.394Z,13.20
2019-06-08T23:02:11.145Z,13.20
2019-06-08T23:04:41.387Z,13.40
2019-06-08T23:07:25.782Z,13.50
2019-06-08T23:09:43.993Z,13.30
2019-06-08T23:12:14.238Z,13.90
2019-06-08T23:14:47.038Z,13.90
2019-06-08T23:17:17.851Z,14.10
2019-06-08T23:19:48.241Z,14.20
2019-06-08T23:22:18.525Z,14.20
2019-06-08T23:24:48.981Z,14.10
2019-06-08T23:27:19.201Z,14.30
2019-06-08T23:29:50.491Z,14.20
2019-06-08T23:32:20.700Z,14.10
2019-06-08T23:34:51.164Z,13.80
2019-06-08T23:37:21.383Z,13.70
2019-06-08T23:39:51.708Z,13.40
2019-06-08T23:42:22.563Z,13.30
2019-06-08T23:44:52.661Z,13.30
2019-06-08T23:47:23.462Z,13.50
2019-06-08T23:49:53.682Z,13.50
2019-06-08T23:52:24.411Z,13.30
2019-06-08T23:54:54.616Z,13.40
2019-06-08T23:57:27.170Z,13.40
2019-06-08T23:59:59.360Z,13.40
